sensor_id;sensor_type;location;lat;lon;timestamp;temperature;humidity
9699;DHT22;10089;47.876;8.346;2023-04-06T00:01:37;-0.50;99.90
9699;DHT22;10089;47.876;8.346;2023-04-06T00:04:03;-0.50;1.00
9699;DHT22;10089;47.876;8.346;2023-04-06T00:06:29;-0.60;1.00
9699;DHT22;10089;47.876;8.346;2023-04-06T00:08:55;-0.70;84.50
9699;DHT22;10089;47.876;8.346;2023-04-06T00:11:21;-0.80;99.90
9699;DHT22;10089;47.876;8.346;2023-04-06T00:13:47;-0.80;99.90
9699;DHT22;10089;47.876;8.346;2023-04-06T00:16:13;-0.90;99.90
9699;DHT22;10089;47.876;8.346;2023-04-06T00:18:39;-0.90;1.00
9699;DHT22;10089;47.876;8.346;2023-04-06T00:21:05;-0.80;1.00
9699;DHT22;10089;47.876;8.346;2023-04-06T00:23:31;-0.90;1.00
9699;DHT22;10089;47.876;8.346;2023-04-06T00:25:56;-0.90;1.00
9699;DHT22;10089;47.876;8.346;2023-04-06T00:28:22;-0.90;1.00
9699;DHT22;10089;47.876;8.346;2023-04-06T00:30:54;-0.80;99.90
9699;DHT22;10089;47.876;8.346;2023-04-06T00:33:24;-0.80;1.00
9699;DHT22;10089;47.876;8.346;2023-04-06T00:35:50;-0.80;1.00
9699;DHT22;10089;47.876;8.346;2023-04-06T00:38:16;-0.80;99.90
9699;DHT22;10089;47.876;8.346;2023-04-06T00:40:42;-0.80;99.90
9699;DHT22;10089;47.876;8.346;2023-04-06T00:43:22;-0.80;99.90
9699;DHT22;10089;47.876;8.346;2023-04-06T00:45:47;-0.80;1.00
9699;DHT22;10089;47.876;8.346;2023-04-06T00:48:13;-0.90;1.00
9699;DHT22;10089;47.876;8.346;2023-04-06T00:50:39;-1.00;99.90
9699;DHT22;10089;47.876;8.346;2023-04-06T00:53:05;-1.10;1.00
9699;DHT22;10089;47.876;8.346;2023-04-06T00:55:30;-1.10;99.90
9699;DHT22;10089;47.876;8.346;2023-04-06T00:57:58;-1.10;1.00
9699;DHT22;10089;47.876;8.346;2023-04-06T01:00:25;-1.20;1.00
9699;DHT22;10089;47.876;8.346;2023-04-06T01:02:51;-1.20;1.00
9699;DHT22;10089;47.876;8.346;2023-04-06T01:05:17;-1.20;1.00
9699;DHT22;10089;47.876;8.346;2023-04-06T01:07:43;-1.30;1.00
9699;DHT22;10089;47.876;8.346;2023-04-06T01:10:09;-1.20;1.00
9699;DHT22;10089;47.876;8.346;2023-04-06T01:12:35;-1.20;99.90
9699;DHT22;10089;47.876;8.346;2023-04-06T01:15:03;-1.10;1.00
9699;DHT22;10089;47.876;8.346;2023-04-06T01:17:29;-1.20;1.00
9699;DHT22;10089;47.876;8.346;2023-04-06T01:19:55;-1.30;99.90
9699;DHT22;10089;47.876;8.346;2023-04-06T01:22:21;-1.30;1.00
9699;DHT22;10089;47.876;8.346;2023-04-06T01:24:46;-1.30;1.00
9699;DHT22;10089;47.876;8.346;2023-04-06T01:27:13;-1.30;1.00
9699;DHT22;10089;47.876;8.346;2023-04-06T01:29:39;-1.30;1.00
9699;DHT22;10089;47.876;8.346;2023-04-06T01:32:08;-1.10;1.00
9699;DHT22;10089;47.876;8.346;2023-04-06T01:34:35;-1.20;1.00
9699;DHT22;10089;47.876;8.346;2023-04-06T01:37:01;-1.30;99.90
9699;DHT22;10089;47.876;8.346;2023-04-06T01:39:26;-1.30;1.00
9699;DHT22;10089;47.876;8.346;2023-04-06T01:41:52;-1.30;1.00
9699;DHT22;10089;47.876;8.346;2023-04-06T01:44:18;-1.30;1.00
9699;DHT22;10089;47.876;8.346;2023-04-06T01:46:44;-1.40;1.00
9699;DHT22;10089;47.876;8.346;2023-04-06T01:49:11;-1.40;1.00
9699;DHT22;10089;47.876;8.346;2023-04-06T01:51:37;-1.40;19.70
9699;DHT22;10089;47.876;8.346;2023-04-06T01:54:03;-1.50;1.00
9699;DHT22;10089;47.876;8.346;2023-04-06T01:56:29;-1.50;1.00
9699;DHT22;10089;47.876;8.346;2023-04-06T01:58:55;-1.50;99.90
9699;DHT22;10089;47.876;8.346;2023-04-06T02:01:22;-1.50;1.00
9699;DHT22;10089;47.876;8.346;2023-04-06T02:03:48;-1.50;1.00
9699;DHT22;10089;47.876;8.346;2023-04-06T02:06:14;-1.50;1.00
9699;DHT22;10089;47.876;8.346;2023-04-06T02:08:40;-1.60;1.00
9699;DHT22;10089;47.876;8.346;2023-04-06T02:11:05;-1.70;1.00
9699;DHT22;10089;47.876;8.346;2023-04-06T02:13:31;-1.70;1.00
9699;DHT22;10089;47.876;8.346;2023-04-06T02:15:57;-1.70;1.00
9699;DHT22;10089;47.876;8.346;2023-04-06T02:18:23;-1.70;2.20
9699;DHT22;10089;47.876;8.346;2023-04-06T02:20:49;-1.60;1.00
9699;DHT22;10089;47.876;8.346;2023-04-06T02:23:15;-1.90;1.00
9699;DHT22;10089;47.876;8.346;2023-04-06T02:25:41;-1.90;30.00
9699;DHT22;10089;47.876;8.346;2023-04-06T02:28:07;-1.90;1.00
9699;DHT22;10089;47.876;8.346;2023-04-06T02:30:33;-1.90;99.90
9699;DHT22;10089;47.876;8.346;2023-04-06T02:33:02;-1.80;1.00
9699;DHT22;10089;47.876;8.346;2023-04-06T02:35:29;-1.80;11.20
9699;DHT22;10089;47.876;8.346;2023-04-06T02:37:55;-1.70;1.00
9699;DHT22;10089;47.876;8.346;2023-04-06T02:40:21;-1.70;1.00
9699;DHT22;10089;47.876;8.346;2023-04-06T02:42:47;-1.80;99.90
9699;DHT22;10089;47.876;8.346;2023-04-06T02:45:13;-1.80;99.90
9699;DHT22;10089;47.876;8.346;2023-04-06T02:47:39;-1.80;51.80
9699;DHT22;10089;47.876;8.346;2023-04-06T02:50:05;-1.80;1.00
9699;DHT22;10089;47.876;8.346;2023-04-06T02:52:31;-1.90;99.90
9699;DHT22;10089;47.876;8.346;2023-04-06T02:54:57;-1.90;99.90
9699;DHT22;10089;47.876;8.346;2023-04-06T02:57:23;-1.80;99.90
9699;DHT22;10089;47.876;8.346;2023-04-06T02:59:49;-1.90;1.00
9699;DHT22;10089;47.876;8.346;2023-04-06T03:02:14;-1.80;99.90
9699;DHT22;10089;47.876;8.346;2023-04-06T03:04:41;-1.80;1.00
9699;DHT22;10089;47.876;8.346;2023-04-06T03:07:07;-1.80;1.00
9699;DHT22;10089;47.876;8.346;2023-04-06T03:09:32;-1.80;1.00
9699;DHT22;10089;47.876;8.346;2023-04-06T03:11:59;-1.80;1.00
9699;DHT22;10089;47.876;8.346;2023-04-06T03:14:27;-1.90;99.90
9699;DHT22;10089;47.876;8.346;2023-04-06T03:16:52;-1.80;99.90
9699;DHT22;10089;47.876;8.346;2023-04-06T03:19:18;-1.90;99.90
9699;DHT22;10089;47.876;8.346;2023-04-06T03:21:44;-1.60;99.90
9699;DHT22;10089;47.876;8.346;2023-04-06T03:24:10;-1.90;99.90
9699;DHT22;10089;47.876;8.346;2023-04-06T03:26:36;-1.90;1.00
9699;DHT22;10089;47.876;8.346;2023-04-06T03:31:44;-2.00;1.00
9699;DHT22;10089;47.876;8.346;2023-04-06T03:34:10;-2.00;99.90
9699;DHT22;10089;47.876;8.346;2023-04-06T03:36:36;-2.00;99.90
9699;DHT22;10089;47.876;8.346;2023-04-06T03:39:03;-2.00;1.00
9699;DHT22;10089;47.876;8.346;2023-04-06T03:41:29;-2.00;99.90
9699;DHT22;10089;47.876;8.346;2023-04-06T03:43:55;-1.90;99.90
9699;DHT22;10089;47.876;8.346;2023-04-06T03:46:21;-1.90;1.00
9699;DHT22;10089;47.876;8.346;2023-04-06T03:48:48;-1.90;1.00
9699;DHT22;10089;47.876;8.346;2023-04-06T03:51:14;-2.00;1.00
9699;DHT22;10089;47.876;8.346;2023-04-06T03:53:40;-1.90;1.00
9699;DHT22;10089;47.876;8.346;2023-04-06T03:56:06;-1.90;1.00
9699;DHT22;10089;47.876;8.346;2023-04-06T03:58:32;-1.90;1.00
9699;DHT22;10089;47.876;8.346;2023-04-06T04:00:58;-1.90;66.50
9699;DHT22;10089;47.876;8.346;2023-04-06T04:03:24;-2.00;99.90
9699;DHT22;10089;47.876;8.346;2023-04-06T04:05:52;-2.10;1.00
9699;DHT22;10089;47.876;8.346;2023-04-06T04:08:18;-2.10;99.90
9699;DHT22;10089;47.876;8.346;2023-04-06T04:10:44;-2.20;59.90
9699;DHT22;10089;47.876;8.346;2023-04-06T04:13:09;-2.20;1.00
9699;DHT22;10089;47.876;8.346;2023-04-06T04:15:35;-2.20;1.00
9699;DHT22;10089;47.876;8.346;2023-04-06T04:18:01;-2.20;99.90
9699;DHT22;10089;47.876;8.346;2023-04-06T04:20:28;-2.20;1.00
9699;DHT22;10089;47.876;8.346;2023-04-06T04:22:54;-2.30;1.00
9699;DHT22;10089;47.876;8.346;2023-04-06T04:25:19;-2.30;99.90
9699;DHT22;10089;47.876;8.346;2023-04-06T04:27:45;-2.30;99.90
9699;DHT22;10089;47.876;8.346;2023-04-06T04:30:11;-2.30;99.90
9699;DHT22;10089;47.876;8.346;2023-04-06T04:32:37;-2.20;1.00
9699;DHT22;10089;47.876;8.346;2023-04-06T04:35:03;-2.20;1.00
9699;DHT22;10089;47.876;8.346;2023-04-06T04:37:29;-2.20;99.90
9699;DHT22;10089;47.876;8.346;2023-04-06T04:39:55;-2.20;1.00
9699;DHT22;10089;47.876;8.346;2023-04-06T04:42:20;-2.20;1.00
9699;DHT22;10089;47.876;8.346;2023-04-06T04:44:46;-2.10;99.90
9699;DHT22;10089;47.876;8.346;2023-04-06T04:47:12;-2.20;99.90
9699;DHT22;10089;47.876;8.346;2023-04-06T04:49:38;-2.10;1.00
9699;DHT22;10089;47.876;8.346;2023-04-06T04:52:04;-2.10;1.00
9699;DHT22;10089;47.876;8.346;2023-04-06T04:54:29;-2.10;99.90
9699;DHT22;10089;47.876;8.346;2023-04-06T04:56:55;-2.10;1.00
9699;DHT22;10089;47.876;8.346;2023-04-06T04:59:21;-1.90;1.00
9699;DHT22;10089;47.876;8.346;2023-04-06T05:01:47;-2.10;99.90
9699;DHT22;10089;47.876;8.346;2023-04-06T05:04:13;-2.00;99.90
9699;DHT22;10089;47.876;8.346;2023-04-06T05:06:39;-2.10;1.00
9699;DHT22;10089;47.876;8.346;2023-04-06T05:09:05;-2.20;1.00
9699;DHT22;10089;47.876;8.346;2023-04-06T05:11:30;-2.20;1.00
9699;DHT22;10089;47.876;8.346;2023-04-06T05:13:56;-2.20;1.00
9699;DHT22;10089;47.876;8.346;2023-04-06T05:16:22;-2.30;99.90
9699;DHT22;10089;47.876;8.346;2023-04-06T05:18:48;-2.20;99.90
9699;DHT22;10089;47.876;8.346;2023-04-06T05:21:14;-2.20;1.00
9699;DHT22;10089;47.876;8.346;2023-04-06T05:23:40;-2.20;99.90
9699;DHT22;10089;47.876;8.346;2023-04-06T05:26:06;-2.20;99.90
9699;DHT22;10089;47.876;8.346;2023-04-06T05:28:33;-2.10;1.00
9699;DHT22;10089;47.876;8.346;2023-04-06T05:30:58;-2.10;99.90
9699;DHT22;10089;47.876;8.346;2023-04-06T05:33:25;-2.10;79.70
9699;DHT22;10089;47.876;8.346;2023-04-06T05:35:51;-2.00;1.00
9699;DHT22;10089;47.876;8.346;2023-04-06T05:38:17;-2.00;15.00
9699;DHT22;10089;47.876;8.346;2023-04-06T05:40:43;-1.90;1.00
9699;DHT22;10089;47.876;8.346;2023-04-06T05:43:15;-1.90;1.00
9699;DHT22;10089;47.876;8.346;2023-04-06T05:45:41;-1.80;99.90
9699;DHT22;10089;47.876;8.346;2023-04-06T05:48:09;-1.70;1.00
9699;DHT22;10089;47.876;8.346;2023-04-06T05:50:35;-1.50;1.00
9699;DHT22;10089;47.876;8.346;2023-04-06T05:53:01;-1.40;1.00
9699;DHT22;10089;47.876;8.346;2023-04-06T05:55:26;-1.20;1.00
9699;DHT22;10089;47.876;8.346;2023-04-06T05:57:53;-1.10;99.90
9699;DHT22;10089;47.876;8.346;2023-04-06T06:00:19;-1.00;1.00
9699;DHT22;10089;47.876;8.346;2023-04-06T06:02:45;-0.80;99.90
9699;DHT22;10089;47.876;8.346;2023-04-06T06:05:11;-0.70;99.90
9699;DHT22;10089;47.876;8.346;2023-04-06T06:07:37;-0.50;99.90
9699;DHT22;10089;47.876;8.346;2023-04-06T06:10:03;-0.30;1.00
9699;DHT22;10089;47.876;8.346;2023-04-06T06:12:28;0.00;1.00
9699;DHT22;10089;47.876;8.346;2023-04-06T06:14:54;0.30;99.90
9699;DHT22;10089;47.876;8.346;2023-04-06T06:17:20;0.80;1.00
9699;DHT22;10089;47.876;8.346;2023-04-06T06:19:46;0.90;1.00
9699;DHT22;10089;47.876;8.346;2023-04-06T06:22:12;1.30;1.00
9699;DHT22;10089;47.876;8.346;2023-04-06T06:24:38;1.40;1.00
9699;DHT22;10089;47.876;8.346;2023-04-06T06:27:04;1.80;1.00
9699;DHT22;10089;47.876;8.346;2023-04-06T06:29:30;2.10;1.00
9699;DHT22;10089;47.876;8.346;2023-04-06T06:31:56;2.70;1.00
9699;DHT22;10089;47.876;8.346;2023-04-06T06:34:22;3.10;99.90
9699;DHT22;10089;47.876;8.346;2023-04-06T06:36:47;3.40;1.00
9699;DHT22;10089;47.876;8.346;2023-04-06T06:39:13;3.80;1.00
9699;DHT22;10089;47.876;8.346;2023-04-06T06:41:39;4.10;1.00
9699;DHT22;10089;47.876;8.346;2023-04-06T06:44:05;4.40;99.90
9699;DHT22;10089;47.876;8.346;2023-04-06T06:46:31;4.80;99.90
9699;DHT22;10089;47.876;8.346;2023-04-06T06:48:58;4.90;99.90
9699;DHT22;10089;47.876;8.346;2023-04-06T06:51:24;5.00;99.90
9699;DHT22;10089;47.876;8.346;2023-04-06T06:53:50;5.30;99.90
9699;DHT22;10089;47.876;8.346;2023-04-06T06:56:16;5.60;57.80
9699;DHT22;10089;47.876;8.346;2023-04-06T06:58:42;6.20;1.00
9699;DHT22;10089;47.876;8.346;2023-04-06T07:01:07;6.30;1.00
9699;DHT22;10089;47.876;8.346;2023-04-06T07:03:33;6.60;1.00
9699;DHT22;10089;47.876;8.346;2023-04-06T07:05:59;6.80;1.00
9699;DHT22;10089;47.876;8.346;2023-04-06T07:08:25;6.90;1.00
9699;DHT22;10089;47.876;8.346;2023-04-06T07:10:52;6.60;1.00
9699;DHT22;10089;47.876;8.346;2023-04-06T07:13:19;7.00;1.00
9699;DHT22;10089;47.876;8.346;2023-04-06T07:15:49;7.20;1.00
9699;DHT22;10089;47.876;8.346;2023-04-06T07:18:16;7.20;1.00
9699;DHT22;10089;47.876;8.346;2023-04-06T07:20:42;7.50;1.00
9699;DHT22;10089;47.876;8.346;2023-04-06T07:23:08;7.30;1.00
9699;DHT22;10089;47.876;8.346;2023-04-06T07:25:34;6.60;1.00
9699;DHT22;10089;47.876;8.346;2023-04-06T07:28:01;6.70;1.00
9699;DHT22;10089;47.876;8.346;2023-04-06T07:30:27;6.80;1.00
9699;DHT22;10089;47.876;8.346;2023-04-06T07:32:54;6.40;1.00
9699;DHT22;10089;47.876;8.346;2023-04-06T07:35:26;5.90;1.00
9699;DHT22;10089;47.876;8.346;2023-04-06T07:37:55;5.80;1.00
9699;DHT22;10089;47.876;8.346;2023-04-06T07:40:22;6.10;1.00
9699;DHT22;10089;47.876;8.346;2023-04-06T07:42:47;6.10;1.00
9699;DHT22;10089;47.876;8.346;2023-04-06T07:45:14;6.30;1.00
9699;DHT22;10089;47.876;8.346;2023-04-06T07:47:41;6.70;1.00
9699;DHT22;10089;47.876;8.346;2023-04-06T07:50:07;6.50;1.00
9699;DHT22;10089;47.876;8.346;2023-04-06T07:52:33;6.20;1.00
9699;DHT22;10089;47.876;8.346;2023-04-06T07:54:59;6.20;1.00
9699;DHT22;10089;47.876;8.346;2023-04-06T07:57:25;6.80;1.00
9699;DHT22;10089;47.876;8.346;2023-04-06T07:59:51;7.00;1.00
9699;DHT22;10089;47.876;8.346;2023-04-06T08:02:17;6.80;1.00
9699;DHT22;10089;47.876;8.346;2023-04-06T08:04:44;8.00;1.00
9699;DHT22;10089;47.876;8.346;2023-04-06T08:07:10;8.50;1.00
9699;DHT22;10089;47.876;8.346;2023-04-06T08:09:36;8.80;1.00
9699;DHT22;10089;47.876;8.346;2023-04-06T08:12:02;8.60;1.00
9699;DHT22;10089;47.876;8.346;2023-04-06T08:14:28;8.50;1.00
9699;DHT22;10089;47.876;8.346;2023-04-06T08:16:53;8.70;1.00
9699;DHT22;10089;47.876;8.346;2023-04-06T08:19:20;8.30;99.90
9699;DHT22;10089;47.876;8.346;2023-04-06T08:21:46;8.00;99.90
9699;DHT22;10089;47.876;8.346;2023-04-06T08:24:13;7.70;1.00
9699;DHT22;10089;47.876;8.346;2023-04-06T08:26:39;8.60;1.00
9699;DHT22;10089;47.876;8.346;2023-04-06T08:29:05;9.40;99.90
9699;DHT22;10089;47.876;8.346;2023-04-06T08:31:34;9.20;99.90
9699;DHT22;10089;47.876;8.346;2023-04-06T08:34:00;8.40;99.90
9699;DHT22;10089;47.876;8.346;2023-04-06T08:36:26;8.20;99.90
9699;DHT22;10089;47.876;8.346;2023-04-06T08:38:52;8.40;99.90
9699;DHT22;10089;47.876;8.346;2023-04-06T08:41:18;8.80;99.90
9699;DHT22;10089;47.876;8.346;2023-04-06T08:43:47;9.00;99.90
9699;DHT22;10089;47.876;8.346;2023-04-06T08:46:13;8.90;99.90
9699;DHT22;10089;47.876;8.346;2023-04-06T08:48:41;8.80;99.90
9699;DHT22;10089;47.876;8.346;2023-04-06T08:51:09;9.20;99.90
9699;DHT22;10089;47.876;8.346;2023-04-06T08:53:35;9.10;99.90
9699;DHT22;10089;47.876;8.346;2023-04-06T08:56:02;9.20;99.90
9699;DHT22;10089;47.876;8.346;2023-04-06T08:58:35;9.30;99.90
9699;DHT22;10089;47.876;8.346;2023-04-06T09:01:05;9.40;99.90
9699;DHT22;10089;47.876;8.346;2023-04-06T09:03:34;8.80;99.90
9699;DHT22;10089;47.876;8.346;2023-04-06T09:06:01;9.00;99.90
9699;DHT22;10089;47.876;8.346;2023-04-06T09:08:28;10.00;99.90
9699;DHT22;10089;47.876;8.346;2023-04-06T09:10:54;10.50;99.90
9699;DHT22;10089;47.876;8.346;2023-04-06T09:13:19;10.10;99.90
9699;DHT22;10089;47.876;8.346;2023-04-06T09:15:45;9.10;99.90
9699;DHT22;10089;47.876;8.346;2023-04-06T09:18:11;9.40;99.90
9699;DHT22;10089;47.876;8.346;2023-04-06T09:20:37;9.50;99.90
9699;DHT22;10089;47.876;8.346;2023-04-06T09:23:03;9.90;99.90
9699;DHT22;10089;47.876;8.346;2023-04-06T09:25:29;9.60;99.90
9699;DHT22;10089;47.876;8.346;2023-04-06T09:28:04;8.80;99.90
9699;DHT22;10089;47.876;8.346;2023-04-06T09:30:30;9.90;99.90
9699;DHT22;10089;47.876;8.346;2023-04-06T09:32:57;10.00;99.90
9699;DHT22;10089;47.876;8.346;2023-04-06T09:35:24;10.00;99.90
9699;DHT22;10089;47.876;8.346;2023-04-06T09:37:52;9.90;99.90
9699;DHT22;10089;47.876;8.346;2023-04-06T09:40:19;9.40;99.90
9699;DHT22;10089;47.876;8.346;2023-04-06T09:42:46;9.80;99.90
9699;DHT22;10089;47.876;8.346;2023-04-06T09:45:13;9.40;99.90
9699;DHT22;10089;47.876;8.346;2023-04-06T09:47:42;9.00;99.90
9699;DHT22;10089;47.876;8.346;2023-04-06T09:50:10;9.10;99.90
9699;DHT22;10089;47.876;8.346;2023-04-06T09:52:48;9.60;99.90
9699;DHT22;10089;47.876;8.346;2023-04-06T09:55:35;9.20;99.90
9699;DHT22;10089;47.876;8.346;2023-04-06T09:58:06;10.30;99.90
9699;DHT22;10089;47.876;8.346;2023-04-06T10:00:47;10.10;99.90
9699;DHT22;10089;47.876;8.346;2023-04-06T10:06:03;9.90;99.90
9699;DHT22;10089;47.876;8.346;2023-04-06T10:08:33;10.30;99.90
9699;DHT22;10089;47.876;8.346;2023-04-06T10:11:00;10.80;99.90
9699;DHT22;10089;47.876;8.346;2023-04-06T10:13:27;10.50;99.90
9699;DHT22;10089;47.876;8.346;2023-04-06T10:15:54;9.90;99.90
9699;DHT22;10089;47.876;8.346;2023-04-06T10:18:21;9.80;99.90
9699;DHT22;10089;47.876;8.346;2023-04-06T10:20:57;10.00;99.90
9699;DHT22;10089;47.876;8.346;2023-04-06T10:23:48;10.10;99.90
9699;DHT22;10089;47.876;8.346;2023-04-06T10:26:15;10.00;99.90
9699;DHT22;10089;47.876;8.346;2023-04-06T10:28:43;10.60;99.90
9699;DHT22;10089;47.876;8.346;2023-04-06T10:31:09;11.00;99.90
9699;DHT22;10089;47.876;8.346;2023-04-06T10:33:36;10.60;99.90
9699;DHT22;10089;47.876;8.346;2023-04-06T10:36:14;11.00;99.90
9699;DHT22;10089;47.876;8.346;2023-04-06T10:38:41;10.50;99.90
9699;DHT22;10089;47.876;8.346;2023-04-06T10:41:11;10.70;99.90
9699;DHT22;10089;47.876;8.346;2023-04-06T10:43:40;10.90;99.90
9699;DHT22;10089;47.876;8.346;2023-04-06T10:46:08;11.30;99.90
9699;DHT22;10089;47.876;8.346;2023-04-06T10:48:44;10.40;99.90
9699;DHT22;10089;47.876;8.346;2023-04-06T10:51:16;10.90;99.90
9699;DHT22;10089;47.876;8.346;2023-04-06T10:53:44;11.10;99.90
9699;DHT22;10089;47.876;8.346;2023-04-06T10:56:16;11.00;99.90
9699;DHT22;10089;47.876;8.346;2023-04-06T10:58:49;10.90;99.90
9699;DHT22;10089;47.876;8.346;2023-04-06T11:01:17;11.20;99.90
9699;DHT22;10089;47.876;8.346;2023-04-06T11:03:52;11.60;99.90
9699;DHT22;10089;47.876;8.346;2023-04-06T11:06:23;12.10;99.90
9699;DHT22;10089;47.876;8.346;2023-04-06T11:08:49;10.80;99.90
9699;DHT22;10089;47.876;8.346;2023-04-06T11:11:18;10.90;99.90
9699;DHT22;10089;47.876;8.346;2023-04-06T11:13:56;10.40;99.90
9699;DHT22;10089;47.876;8.346;2023-04-06T11:16:29;10.80;99.90
9699;DHT22;10089;47.876;8.346;2023-04-06T11:19:03;9.80;99.90
9699;DHT22;10089;47.876;8.346;2023-04-06T11:24:11;9.80;99.90
9699;DHT22;10089;47.876;8.346;2023-04-06T11:26:39;10.60;99.90
9699;DHT22;10089;47.876;8.346;2023-04-06T11:29:06;10.70;99.90
9699;DHT22;10089;47.876;8.346;2023-04-06T11:31:41;10.10;99.90
9699;DHT22;10089;47.876;8.346;2023-04-06T11:34:11;11.00;99.90
9699;DHT22;10089;47.876;8.346;2023-04-06T11:36:40;11.00;99.90
9699;DHT22;10089;47.876;8.346;2023-04-06T11:39:06;10.40;99.90
9699;DHT22;10089;47.876;8.346;2023-04-06T11:41:33;11.10;99.90
9699;DHT22;10089;47.876;8.346;2023-04-06T11:44:01;10.60;99.90
9699;DHT22;10089;47.876;8.346;2023-04-06T11:46:28;10.80;99.90
9699;DHT22;10089;47.876;8.346;2023-04-06T11:48:59;10.40;99.90
9699;DHT22;10089;47.876;8.346;2023-04-06T11:51:26;10.20;99.90
9699;DHT22;10089;47.876;8.346;2023-04-06T11:53:53;11.00;99.90
9699;DHT22;10089;47.876;8.346;2023-04-06T11:56:29;10.30;99.90
9699;DHT22;10089;47.876;8.346;2023-04-06T11:58:57;10.00;99.90
9699;DHT22;10089;47.876;8.346;2023-04-06T12:01:24;9.70;99.90
9699;DHT22;10089;47.876;8.346;2023-04-06T12:03:50;9.80;99.90
9699;DHT22;10089;47.876;8.346;2023-04-06T12:06:16;10.20;99.90
9699;DHT22;10089;47.876;8.346;2023-04-06T12:08:43;9.50;99.90
9699;DHT22;10089;47.876;8.346;2023-04-06T12:11:09;10.00;99.90
9699;DHT22;10089;47.876;8.346;2023-04-06T12:13:34;10.20;99.90
9699;DHT22;10089;47.876;8.346;2023-04-06T12:16:00;10.80;99.90
9699;DHT22;10089;47.876;8.346;2023-04-06T12:18:26;11.00;99.90
9699;DHT22;10089;47.876;8.346;2023-04-06T12:20:52;11.00;99.90
9699;DHT22;10089;47.876;8.346;2023-04-06T12:23:19;11.00;99.90
9699;DHT22;10089;47.876;8.346;2023-04-06T12:25:45;11.20;99.90
9699;DHT22;10089;47.876;8.346;2023-04-06T12:28:11;10.90;99.90
9699;DHT22;10089;47.876;8.346;2023-04-06T12:30:37;11.40;99.90
9699;DHT22;10089;47.876;8.346;2023-04-06T12:33:05;11.70;99.90
9699;DHT22;10089;47.876;8.346;2023-04-06T12:35:34;11.10;99.90
9699;DHT22;10089;47.876;8.346;2023-04-06T12:38:00;10.80;99.90
9699;DHT22;10089;47.876;8.346;2023-04-06T12:40:37;10.20;99.90
9699;DHT22;10089;47.876;8.346;2023-04-06T12:43:04;10.20;99.90
9699;DHT22;10089;47.876;8.346;2023-04-06T12:45:33;10.00;99.90
9699;DHT22;10089;47.876;8.346;2023-04-06T12:48:06;10.60;99.90
9699;DHT22;10089;47.876;8.346;2023-04-06T12:50:32;10.30;99.90
9699;DHT22;10089;47.876;8.346;2023-04-06T12:52:58;10.30;99.90
9699;DHT22;10089;47.876;8.346;2023-04-06T12:55:24;10.10;99.90
9699;DHT22;10089;47.876;8.346;2023-04-06T12:57:50;10.60;99.90
9699;DHT22;10089;47.876;8.346;2023-04-06T13:00:16;11.00;99.90
9699;DHT22;10089;47.876;8.346;2023-04-06T13:02:42;11.20;99.90
9699;DHT22;10089;47.876;8.346;2023-04-06T13:05:13;11.40;99.90
9699;DHT22;10089;47.876;8.346;2023-04-06T13:07:40;11.50;99.90
9699;DHT22;10089;47.876;8.346;2023-04-06T13:10:06;11.30;99.90
9699;DHT22;10089;47.876;8.346;2023-04-06T13:12:32;11.00;99.90
9699;DHT22;10089;47.876;8.346;2023-04-06T13:14:58;11.10;99.90
9699;DHT22;10089;47.876;8.346;2023-04-06T13:17:24;11.20;99.90
9699;DHT22;10089;47.876;8.346;2023-04-06T13:19:52;11.20;99.90
9699;DHT22;10089;47.876;8.346;2023-04-06T13:22:18;11.30;99.90
9699;DHT22;10089;47.876;8.346;2023-04-06T13:24:43;11.30;99.90
9699;DHT22;10089;47.876;8.346;2023-04-06T13:27:09;11.40;99.90
9699;DHT22;10089;47.876;8.346;2023-04-06T13:29:36;11.50;99.90
9699;DHT22;10089;47.876;8.346;2023-04-06T13:32:03;11.50;99.90
9699;DHT22;10089;47.876;8.346;2023-04-06T13:34:28;11.60;99.90
9699;DHT22;10089;47.876;8.346;2023-04-06T13:36:55;11.70;99.90
9699;DHT22;10089;47.876;8.346;2023-04-06T13:39:20;11.60;99.90
9699;DHT22;10089;47.876;8.346;2023-04-06T13:41:46;11.30;99.90
9699;DHT22;10089;47.876;8.346;2023-04-06T13:44:12;11.30;99.90
9699;DHT22;10089;47.876;8.346;2023-04-06T13:46:38;11.40;99.90
9699;DHT22;10089;47.876;8.346;2023-04-06T13:49:03;11.30;99.90
9699;DHT22;10089;47.876;8.346;2023-04-06T13:51:29;11.20;99.90
9699;DHT22;10089;47.876;8.346;2023-04-06T13:53:56;11.10;99.90
9699;DHT22;10089;47.876;8.346;2023-04-06T13:56:22;11.20;99.90
9699;DHT22;10089;47.876;8.346;2023-04-06T13:58:47;11.10;99.90
9699;DHT22;10089;47.876;8.346;2023-04-06T14:01:13;11.00;99.90
9699;DHT22;10089;47.876;8.346;2023-04-06T14:03:39;11.10;99.90
9699;DHT22;10089;47.876;8.346;2023-04-06T14:06:12;11.10;99.90
9699;DHT22;10089;47.876;8.346;2023-04-06T14:08:38;11.20;99.90
9699;DHT22;10089;47.876;8.346;2023-04-06T14:11:04;11.20;99.90
9699;DHT22;10089;47.876;8.346;2023-04-06T14:13:30;11.20;99.90
9699;DHT22;10089;47.876;8.346;2023-04-06T14:15:55;11.10;99.90
9699;DHT22;10089;47.876;8.346;2023-04-06T14:18:22;10.90;99.90
9699;DHT22;10089;47.876;8.346;2023-04-06T14:20:58;10.90;99.90
9699;DHT22;10089;47.876;8.346;2023-04-06T14:23:24;10.60;99.90
9699;DHT22;10089;47.876;8.346;2023-04-06T14:26:07;10.50;99.90
9699;DHT22;10089;47.876;8.346;2023-04-06T14:28:34;10.70;99.90
9699;DHT22;10089;47.876;8.346;2023-04-06T14:31:02;10.50;99.90
9699;DHT22;10089;47.876;8.346;2023-04-06T14:33:34;10.50;99.90
9699;DHT22;10089;47.876;8.346;2023-04-06T14:36:03;10.40;99.90
9699;DHT22;10089;47.876;8.346;2023-04-06T14:38:29;10.30;99.90
9699;DHT22;10089;47.876;8.346;2023-04-06T14:40:55;10.40;99.90
9699;DHT22;10089;47.876;8.346;2023-04-06T14:43:21;10.20;99.90
9699;DHT22;10089;47.876;8.346;2023-04-06T14:45:47;10.20;99.90
9699;DHT22;10089;47.876;8.346;2023-04-06T14:48:13;10.20;99.90
9699;DHT22;10089;47.876;8.346;2023-04-06T14:50:41;10.20;99.90
9699;DHT22;10089;47.876;8.346;2023-04-06T14:53:11;10.00;99.90
9699;DHT22;10089;47.876;8.346;2023-04-06T14:55:40;9.90;99.90
9699;DHT22;10089;47.876;8.346;2023-04-06T14:58:07;10.00;99.90
9699;DHT22;10089;47.876;8.346;2023-04-06T15:00:42;9.90;99.90
9699;DHT22;10089;47.876;8.346;2023-04-06T15:03:07;9.80;99.90
9699;DHT22;10089;47.876;8.346;2023-04-06T15:05:34;9.90;99.90
9699;DHT22;10089;47.876;8.346;2023-04-06T15:08:00;10.10;99.90
9699;DHT22;10089;47.876;8.346;2023-04-06T15:10:26;10.00;99.90
9699;DHT22;10089;47.876;8.346;2023-04-06T15:12:52;9.80;99.90
9699;DHT22;10089;47.876;8.346;2023-04-06T15:15:18;9.70;99.90
9699;DHT22;10089;47.876;8.346;2023-04-06T15:17:44;9.70;99.90
9699;DHT22;10089;47.876;8.346;2023-04-06T15:20:10;9.60;99.90
9699;DHT22;10089;47.876;8.346;2023-04-06T15:22:36;9.60;99.90
9699;DHT22;10089;47.876;8.346;2023-04-06T15:25:02;9.60;99.90
9699;DHT22;10089;47.876;8.346;2023-04-06T15:27:27;9.70;99.90
9699;DHT22;10089;47.876;8.346;2023-04-06T15:29:53;9.90;99.90
9699;DHT22;10089;47.876;8.346;2023-04-06T15:32:19;9.90;99.90
9699;DHT22;10089;47.876;8.346;2023-04-06T15:34:46;9.90;99.90
9699;DHT22;10089;47.876;8.346;2023-04-06T15:37:11;9.70;99.90
9699;DHT22;10089;47.876;8.346;2023-04-06T15:39:37;9.60;99.90
9699;DHT22;10089;47.876;8.346;2023-04-06T15:42:03;9.40;99.90
9699;DHT22;10089;47.876;8.346;2023-04-06T15:44:29;9.40;99.90
9699;DHT22;10089;47.876;8.346;2023-04-06T15:46:55;9.40;99.90
9699;DHT22;10089;47.876;8.346;2023-04-06T15:49:21;9.30;99.90
9699;DHT22;10089;47.876;8.346;2023-04-06T15:51:48;9.30;99.90
9699;DHT22;10089;47.876;8.346;2023-04-06T15:54:14;9.30;99.90
9699;DHT22;10089;47.876;8.346;2023-04-06T15:56:40;9.30;99.90
9699;DHT22;10089;47.876;8.346;2023-04-06T15:59:13;9.20;99.90
9699;DHT22;10089;47.876;8.346;2023-04-06T16:01:38;9.30;99.90
9699;DHT22;10089;47.876;8.346;2023-04-06T16:04:07;9.30;99.90